Time;durP1;ratioP1;P1;durP2;ratioP2;P2;SDS_P1;SDS_P2;PMS_P1;PMS_P2;Temp;Humidity;BMP_temperature;BMP_pressure;BME280_temperature;BME280_humidity;BME280_pressure;Samples;Min_cycle;Max_cycle;Signal;HPM_P1;HPM_P2
2023/04/03 00:01:23;;;;;;;4.75;0.90;;;21.90;99.90;;;;;;5068823;28;20048;-62
2023/04/03 00:03:51;;;;;;;4.20;0.90;;;21.90;99.90;;;;;;5070349;28;20024;-62
2023/04/03 00:06:19;;;;;;;3.63;0.70;;;22.20;99.90;;;;;;5065618;28;20049;-63
2023/04/03 00:08:46;;;;;;;4.78;1.17;;;22.40;99.90;;;;;;5070382;28;20148;-62
2023/04/03 00:11:15;;;;;;;4.22;0.75;;;22.50;99.90;;;;;;5069144;28;20084;-62
2023/04/03 00:13:42;;;;;;;6.45;1.50;;;22.70;99.90;;;;;;5062717;28;20505;-63
2023/04/03 00:16:11;;;;;;;4.03;0.80;;;22.70;99.90;;;;;;5065026;28;20469;-62
2023/04/03 00:18:40;;;;;;;3.55;1.45;;;22.70;99.90;;;;;;5067969;28;20032;-62
2023/04/03 00:21:08;;;;;;;2.35;0.80;;;22.70;99.90;;;;;;5063483;28;20021;-63
2023/04/03 00:23:36;;;;;;;3.03;1.45;;;22.80;99.90;;;;;;5071993;28;20032;-64
2023/04/03 00:26:03;;;;;;;6.40;1.10;;;22.70;99.90;;;;;;5068756;28;20025;-62
2023/04/03 00:28:31;;;;;;;3.30;1.20;;;22.90;99.90;;;;;;5064610;28;20444;-62
2023/04/03 00:30:58;;;;;;;5.07;1.00;;;23.00;99.90;;;;;;5067420;28;20157;-63
2023/04/03 00:33:26;;;;;;;4.45;1.00;;;23.30;99.90;;;;;;5066963;28;20031;-63
2023/04/03 00:35:53;;;;;;;7.35;1.00;;;23.60;99.90;;;;;;5077076;28;20028;-63
2023/04/03 00:38:21;;;;;;;4.55;0.73;;;23.70;99.90;;;;;;5069191;28;20794;-62
2023/04/03 00:40:49;;;;;;;2.92;0.93;;;23.70;99.90;;;;;;5064455;28;20035;-64
2023/04/03 00:43:27;;;;;;;5.68;1.45;;;23.70;99.90;;;;;;5066785;28;20031;-63
2023/04/03 00:45:56;;;;;;;4.50;0.52;;;23.90;99.90;;;;;;5058615;28;20036;-64
2023/04/03 00:48:31;;;;;;;3.90;0.93;;;24.00;99.90;;;;;;5070122;28;20110;-63
2023/04/03 00:51:00;;;;;;;4.72;0.98;;;23.70;99.90;;;;;;5050469;28;20061;-62
2023/04/03 00:53:37;;;;;;;6.63;1.10;;;23.70;99.90;;;;;;5058487;28;20033;-61
2023/04/03 00:56:09;;;;;;;9.77;0.93;;;23.70;99.90;;;;;;5054765;28;20112;-61
2023/04/03 00:59:02;;;;;;;4.40;0.90;;;23.90;99.90;;;;;;5068194;28;20142;-62
2023/04/03 01:01:30;;;;;;;4.18;1.05;;;23.70;99.90;;;;;;5064597;28;20032;-62
2023/04/03 01:04:00;;;;;;;3.90;0.80;;;23.60;99.90;;;;;;5073081;28;20407;-61
2023/04/03 01:06:32;;;;;;;6.22;1.10;;;23.70;99.90;;;;;;5083473;28;20047;-62
2023/04/03 01:09:04;;;;;;;3.72;1.20;;;23.80;99.90;;;;;;5065802;28;20048;-61
2023/04/03 01:11:31;;;;;;;4.63;1.30;;;23.50;99.90;;;;;;5074958;28;20103;-62
2023/04/03 01:13:58;;;;;;;6.05;1.00;;;23.50;99.90;;;;;;5062861;28;20082;-61
2023/04/03 01:16:26;;;;;;;7.80;1.15;;;23.60;99.90;;;;;;5051975;28;20075;-62
2023/04/03 01:18:54;;;;;;;7.20;1.58;;;23.80;99.90;;;;;;5066674;28;20025;-61
2023/04/03 01:21:40;;;;;;;5.90;1.08;;;24.00;99.90;;;;;;5080011;28;20161;-61
2023/04/03 01:24:12;;;;;;;5.18;1.27;;;23.80;99.90;;;;;;5072511;28;20036;-59
2023/04/03 01:26:40;;;;;;;3.72;0.77;;;24.00;99.90;;;;;;5061945;28;20083;-62
2023/04/03 01:29:07;;;;;;;6.75;1.60;;;24.00;99.90;;;;;;5048620;28;20086;-61
2023/04/03 01:31:56;;;;;;;5.78;1.15;;;23.90;99.90;;;;;;5069719;28;20036;-62
2023/04/03 01:34:25;;;;;;;3.97;0.90;;;24.00;99.90;;;;;;5067897;28;21615;-62
2023/04/03 01:36:53;;;;;;;3.88;1.13;;;23.90;99.90;;;;;;5059011;28;20025;-61
2023/04/03 01:39:21;;;;;;;2.33;0.70;;;24.00;99.90;;;;;;5066653;28;20027;-62
2023/04/03 01:41:49;;;;;;;3.10;1.02;;;24.00;99.90;;;;;;5056689;28;20078;-61
2023/04/03 01:44:17;;;;;;;6.82;1.20;;;24.00;99.90;;;;;;5062028;28;20090;-61
2023/04/03 01:46:44;;;;;;;5.88;1.80;;;24.00;99.90;;;;;;5080962;28;20036;-63
2023/04/03 01:49:12;;;;;;;9.25;2.30;;;24.00;99.90;;;;;;5070067;28;20027;-61
2023/04/03 01:51:39;;;;;;;3.28;1.15;;;23.90;99.90;;;;;;5063930;28;20024;-61
2023/04/03 01:54:07;;;;;;;5.25;1.20;;;23.90;99.90;;;;;;5065910;28;20024;-62
2023/04/03 01:56:34;;;;;;;3.30;0.88;;;23.80;99.90;;;;;;5070689;28;20021;-63
2023/04/03 01:59:02;;;;;;;4.78;1.02;;;23.80;99.90;;;;;;5076120;28;20051;-63
2023/04/03 02:01:29;;;;;;;3.67;0.80;;;23.90;99.90;;;;;;5065303;28;20029;-64
2023/04/03 02:03:57;;;;;;;3.75;0.90;;;23.90;99.90;;;;;;5065120;28;20025;-64
2023/04/03 02:06:25;;;;;;;4.93;0.90;;;24.00;99.90;;;;;;5082498;28;20547;-62
2023/04/03 02:08:52;;;;;;;6.28;1.48;;;24.00;99.90;;;;;;5057395;28;20085;-62
2023/04/03 02:11:20;;;;;;;5.35;0.90;;;24.00;99.90;;;;;;5061030;28;20019;-62
2023/04/03 02:13:47;;;;;;;2.30;0.70;;;24.00;99.90;;;;;;5056532;28;20102;-63
2023/04/03 02:16:15;;;;;;;3.72;0.90;;;24.00;99.90;;;;;;5054784;28;20024;-62
2023/04/03 02:18:42;;;;;;;5.63;0.90;;;24.20;99.90;;;;;;5056173;28;20379;-62
2023/04/03 02:21:10;;;;;;;4.18;1.17;;;24.30;99.90;;;;;;5074369;28;20020;-65
2023/04/03 02:23:37;;;;;;;2.70;0.75;;;24.10;99.90;;;;;;5067374;28;20229;-61
2023/04/03 02:26:12;;;;;;;3.22;0.93;;;24.20;99.90;;;;;;5057189;28;20025;-61
2023/04/03 02:28:41;;;;;;;5.88;1.27;;;24.10;99.90;;;;;;5070946;28;20041;-64
2023/04/03 02:31:09;;;;;;;7.10;1.25;;;23.90;99.90;;;;;;5072524;28;20052;-61
2023/04/03 02:33:37;;;;;;;3.47;0.57;;;23.70;99.90;;;;;;5076293;28;20054;-63
2023/04/03 02:36:09;;;;;;;3.92;0.70;;;23.70;99.90;;;;;;5073157;28;20074;-62
2023/04/03 02:38:37;;;;;;;4.20;1.00;;;23.70;99.90;;;;;;5084757;28;20080;-61
2023/04/03 02:41:10;;;;;;;4.95;0.93;;;23.70;99.90;;;;;;5082424;28;20012;-62
2023/04/03 02:43:38;;;;;;;3.63;0.73;;;23.80;99.90;;;;;;5073135;28;20032;-62
2023/04/03 02:46:06;;;;;;;3.55;1.02;;;23.80;99.90;;;;;;5066164;28;20029;-62
2023/04/03 02:48:34;;;;;;;2.60;0.77;;;23.80;99.90;;;;;;5087829;28;20044;-62
2023/04/03 02:51:01;;;;;;;3.00;0.70;;;23.90;99.90;;;;;;5064789;28;20594;-63
2023/04/03 02:53:29;;;;;;;2.70;0.80;;;23.90;99.90;;;;;;5062621;28;20521;-62
2023/04/03 02:55:56;;;;;;;4.68;0.63;;;24.00;99.90;;;;;;5068178;28;20131;-62
2023/04/03 02:58:23;;;;;;;7.03;1.58;;;23.90;99.90;;;;;;5066715;28;20024;-63
2023/04/03 03:00:51;;;;;;;4.10;0.80;;;23.90;99.90;;;;;;5059225;28;20394;-62
2023/04/03 03:03:18;;;;;;;6.47;1.13;;;24.00;99.90;;;;;;5072437;28;20035;-63
2023/04/03 03:05:47;;;;;;;3.30;1.10;;;24.20;99.90;;;;;;5072364;28;20049;-62
2023/04/03 03:08:15;;;;;;;12.38;1.10;;;24.30;99.90;;;;;;5083086;28;20044;-62
2023/04/03 03:10:42;;;;;;;4.40;0.50;;;24.50;99.90;;;;;;5074010;28;20020;-62
2023/04/03 03:13:10;;;;;;;3.22;0.65;;;24.40;99.90;;;;;;5078016;28;20438;-62
2023/04/03 03:15:37;;;;;;;2.10;0.52;;;24.30;99.90;;;;;;5078022;28;20029;-62
2023/04/03 03:18:05;;;;;;;1.17;0.60;;;24.10;99.90;;;;;;5074816;28;20034;-62
2023/04/03 03:20:32;;;;;;;2.78;0.50;;;23.80;99.90;;;;;;5078822;28;20493;-62
2023/04/03 03:23:00;;;;;;;3.53;0.80;;;23.50;99.90;;;;;;5070544;28;20072;-61
2023/04/03 03:25:27;;;;;;;3.75;0.68;;;23.70;99.90;;;;;;5073331;28;20055;-62
2023/04/03 03:27:55;;;;;;;4.93;0.90;;;23.70;99.90;;;;;;5079387;28;20064;-61
2023/04/03 03:30:22;;;;;;;2.97;1.10;;;23.80;99.90;;;;;;5057549;28;20078;-61
2023/04/03 03:32:49;;;;;;;2.35;0.77;;;23.90;99.90;;;;;;5084889;28;20107;-63
2023/04/03 03:35:17;;;;;;;4.68;0.73;;;24.00;99.90;;;;;;5060880;28;20020;-62
2023/04/03 03:37:44;;;;;;;6.60;1.20;;;24.20;99.90;;;;;;5062254;28;20498;-62
2023/04/03 03:40:13;;;;;;;4.00;0.80;;;24.70;99.90;;;;;;5061789;28;20135;-63
2023/04/03 03:42:41;;;;;;;3.45;0.80;;;24.60;99.90;;;;;;5053057;28;20043;-65
2023/04/03 03:45:09;;;;;;;3.78;0.73;;;24.50;99.90;;;;;;5062148;28;20020;-66
2023/04/03 03:47:37;;;;;;;4.43;0.85;;;24.00;99.90;;;;;;5063566;28;20396;-64
2023/04/03 03:50:05;;;;;;;5.20;1.20;;;23.70;99.90;;;;;;5062709;28;20516;-66
2023/04/03 03:52:33;;;;;;;2.40;1.27;;;23.20;99.90;;;;;;5071536;28;20466;-68
2023/04/03 03:55:00;;;;;;;3.78;1.35;;;22.80;99.90;;;;;;5055889;28;20069;-67
2023/04/03 03:57:28;;;;;;;2.47;0.80;;;22.40;99.90;;;;;;5065296;28;20392;-68
2023/04/03 03:59:56;;;;;;;4.85;0.95;;;22.30;99.90;;;;;;5065072;28;20143;-65
2023/04/03 04:02:23;;;;;;;4.45;0.70;;;22.10;99.90;;;;;;5065393;28;20111;-66
2023/04/03 04:04:51;;;;;;;4.13;0.93;;;22.00;99.90;;;;;;5084387;28;20036;-66
2023/04/03 04:07:18;;;;;;;7.05;1.30;;;21.80;99.90;;;;;;5055822;28;20075;-66
2023/04/03 04:09:46;;;;;;;3.35;0.95;;;21.70;99.90;;;;;;5050867;28;20020;-68
2023/04/03 04:12:13;;;;;;;4.90;0.60;;;21.70;99.90;;;;;;5076632;28;20021;-67
2023/04/03 04:14:41;;;;;;;7.47;1.20;;;21.60;99.90;;;;;;5072161;28;20027;-67
2023/04/03 04:17:08;;;;;;;7.68;1.00;;;21.40;99.90;;;;;;5065510;28;20439;-67
2023/04/03 04:19:35;;;;;;;7.82;1.90;;;20.90;99.90;;;;;;5069227;28;20482;-68
2023/04/03 04:22:03;;;;;;;4.40;0.88;;;20.70;99.90;;;;;;5077975;28;20040;-68
2023/04/03 04:24:30;;;;;;;6.93;1.00;;;20.50;99.90;;;;;;5073460;28;20024;-68
2023/04/03 04:26:58;;;;;;;4.10;0.85;;;20.10;99.90;;;;;;5061123;28;20020;-67
2023/04/03 04:29:26;;;;;;;3.70;1.30;;;20.00;99.90;;;;;;5051139;28;20050;-68
2023/04/03 04:31:53;;;;;;;6.53;1.00;;;19.90;99.90;;;;;;5052935;28;20028;-68
2023/04/03 04:34:20;;;;;;;7.65;1.48;;;20.00;99.90;;;;;;5059923;28;20120;-68
2023/04/03 04:36:48;;;;;;;7.78;1.80;;;20.00;99.90;;;;;;5061712;28;20103;-68
2023/04/03 04:39:15;;;;;;;9.73;2.30;;;20.00;99.90;;;;;;5052410;28;20123;-68
2023/04/03 04:41:42;;;;;;;10.95;2.85;;;20.00;99.90;;;;;;5065498;28;20371;-67
2023/04/03 04:44:10;;;;;;;12.23;3.05;;;19.90;99.90;;;;;;5055712;28;20112;-67
2023/04/03 04:46:37;;;;;;;11.18;2.85;;;20.00;99.90;;;;;;5072783;28;20032;-67
2023/04/03 04:49:05;;;;;;;10.63;2.90;;;20.00;99.90;;;;;;5068048;28;20051;-67
2023/04/03 04:51:32;;;;;;;8.07;1.48;;;20.00;99.90;;;;;;5052653;28;20086;-66
2023/04/03 04:54:00;;;;;;;8.63;1.30;;;19.90;99.90;;;;;;5049097;28;20036;-66
2023/04/03 04:56:27;;;;;;;7.97;2.00;;;19.90;99.90;;;;;;5061950;28;20161;-65
2023/04/03 04:58:54;;;;;;;7.72;1.83;;;20.00;99.90;;;;;;5057802;28;20119;-65
2023/04/03 05:01:22;;;;;;;6.63;1.15;;;20.10;99.90;;;;;;5066498;28;20024;-66
2023/04/03 05:03:49;;;;;;;8.32;1.17;;;20.10;99.90;;;;;;5056826;28;20035;-66
2023/04/03 05:06:17;;;;;;;4.88;1.42;;;20.20;99.90;;;;;;5052585;28;20075;-66
2023/04/03 05:08:44;;;;;;;6.47;1.15;;;20.30;99.90;;;;;;5063497;28;20017;-66
2023/04/03 05:11:12;;;;;;;5.30;1.02;;;20.50;99.90;;;;;;5064304;28;20020;-66
2023/04/03 05:13:39;;;;;;;10.13;2.17;;;20.60;99.90;;;;;;5062464;28;20529;-65
2023/04/03 05:16:07;;;;;;;9.43;1.20;;;20.60;99.90;;;;;;5059518;28;20385;-65
2023/04/03 05:18:35;;;;;;;9.27;1.50;;;20.60;99.90;;;;;;5059458;28;20025;-66
2023/04/03 05:21:02;;;;;;;10.93;1.88;;;20.80;99.90;;;;;;5058008;28;20438;-65
2023/04/03 05:23:29;;;;;;;8.63;1.75;;;21.00;99.90;;;;;;5052666;28;20333;-65
2023/04/03 05:25:57;;;;;;;8.00;1.50;;;21.10;99.90;;;;;;5060922;28;20021;-65
2023/04/03 05:28:25;;;;;;;5.95;1.52;;;21.20;99.90;;;;;;5081910;28;20059;-65
2023/04/03 05:30:57;;;;;;;6.22;1.70;;;21.30;99.90;;;;;;5057784;28;20023;-65
2023/04/03 05:33:26;;;;;;;3.15;0.90;;;21.50;99.90;;;;;;5064192;28;20385;-65
2023/04/03 05:35:54;;;;;;;6.70;1.92;;;21.60;99.90;;;;;;5060967;28;20017;-64
2023/04/03 05:38:23;;;;;;;9.90;1.75;;;21.60;99.90;;;;;;5062770;28;20028;-65
2023/04/03 05:40:50;;;;;;;7.55;1.67;;;21.70;99.90;;;;;;5066491;28;20495;-64
2023/04/03 05:43:17;;;;;;;3.28;1.27;;;21.70;99.90;;;;;;5082017;28;20103;-64
2023/04/03 05:45:45;;;;;;;5.10;1.05;;;21.80;99.90;;;;;;5057331;28;20092;-65
2023/04/03 05:48:12;;;;;;;4.25;1.08;;;21.90;99.90;;;;;;5059350;28;20040;-65
2023/04/03 05:50:42;;;;;;;5.78;1.33;;;21.90;99.90;;;;;;5055919;28;20021;-64
2023/04/03 05:53:27;;;;;;;5.93;1.35;;;21.90;99.90;;;;;;5052173;28;20125;-64
2023/04/03 05:55:55;;;;;;;5.75;0.98;;;22.00;99.90;;;;;;5071516;28;20024;-64
2023/04/03 05:58:22;;;;;;;4.03;0.98;;;22.10;99.90;;;;;;5064582;28;20070;-64
2023/04/03 06:00:50;;;;;;;6.10;1.40;;;22.10;99.90;;;;;;5058979;28;20028;-64
2023/04/03 06:03:17;;;;;;;7.40;1.13;;;22.10;99.90;;;;;;5069054;28;20030;-64
2023/04/03 06:05:46;;;;;;;7.10;1.60;;;22.20;99.90;;;;;;5060377;28;20048;-64
2023/04/03 06:08:14;;;;;;;5.47;1.42;;;22.20;99.90;;;;;;5067480;28;20048;-65
2023/04/03 06:10:42;;;;;;;10.85;1.48;;;22.10;99.90;;;;;;5052294;28;20029;-63
2023/04/03 06:13:09;;;;;;;8.90;1.52;;;22.10;99.90;;;;;;5051145;28;20123;-65
2023/04/03 06:15:38;;;;;;;5.65;1.23;;;22.00;99.90;;;;;;5058778;28;20059;-65
2023/04/03 06:18:06;;;;;;;4.95;1.15;;;22.00;99.90;;;;;;5060115;28;20078;-65
2023/04/03 06:20:34;;;;;;;5.60;1.17;;;21.90;99.90;;;;;;5053039;28;20033;-64
2023/04/03 06:23:02;;;;;;;6.35;1.38;;;21.90;99.90;;;;;;5062305;28;20045;-64
2023/04/03 06:25:29;;;;;;;6.00;1.42;;;21.80;99.90;;;;;;5069927;28;20029;-63
2023/04/03 06:27:56;;;;;;;4.55;0.98;;;21.70;99.90;;;;;;5066042;28;20086;-64
2023/04/03 06:30:24;;;;;;;5.72;1.10;;;21.60;99.90;;;;;;5062528;28;20053;-65
2023/04/03 06:32:51;;;;;;;5.47;1.52;;;21.60;99.90;;;;;;5068776;28;20021;-64
2023/04/03 06:35:19;;;;;;;4.60;1.00;;;21.50;99.90;;;;;;5064959;28;20024;-65
2023/04/03 06:37:46;;;;;;;4.60;1.10;;;21.50;99.90;;;;;;5057161;28;20056;-65
2023/04/03 06:40:24;;;;;;;5.15;1.50;;;21.50;99.90;;;;;;5059989;28;20029;-64
2023/04/03 06:42:52;;;;;;;6.00;1.20;;;21.50;99.90;;;;;;5061768;28;20031;-64
2023/04/03 06:45:20;;;;;;;8.35;1.60;;;21.50;99.90;;;;;;5059231;28;20067;-64
2023/04/03 06:47:47;;;;;;;4.70;1.20;;;21.50;99.90;;;;;;5065843;28;20035;-65
2023/04/03 06:50:15;;;;;;;5.15;1.15;;;21.40;99.90;;;;;;5061854;28;20060;-66
2023/04/03 06:52:42;;;;;;;3.67;0.75;;;21.40;99.90;;;;;;5062819;28;20029;-64
2023/04/03 06:55:11;;;;;;;3.88;1.23;;;21.30;99.90;;;;;;5063712;28;20114;-69
2023/04/03 06:57:38;;;;;;;4.35;1.25;;;21.20;99.90;;;;;;5061969;28;20062;-67
2023/04/03 07:00:07;;;;;;;5.63;1.67;;;21.10;99.90;;;;;;5066318;28;20158;-66
2023/04/03 07:02:35;;;;;;;7.97;1.40;;;21.00;99.90;;;;;;5061382;28;20040;-66
2023/04/03 07:05:02;;;;;;;8.15;1.38;;;20.90;99.90;;;;;;5066127;28;20123;-66
2023/04/03 07:07:30;;;;;;;4.40;1.00;;;20.80;99.90;;;;;;5067531;28;20073;-65
2023/04/03 07:09:57;;;;;;;5.47;1.23;;;20.70;99.90;;;;;;5068195;28;20029;-66
2023/04/03 07:12:25;;;;;;;7.20;1.23;;;20.70;99.90;;;;;;5058722;28;20099;-65
2023/04/03 07:14:52;;;;;;;6.95;1.23;;;20.70;99.90;;;;;;5057978;28;20047;-65
2023/04/03 07:17:20;;;;;;;4.43;1.58;;;20.70;99.90;;;;;;5058942;28;20039;-65
2023/04/03 07:19:47;;;;;;;4.88;1.08;;;20.60;99.90;;;;;;5052918;28;20077;-66
2023/04/03 07:22:15;;;;;;;4.20;0.70;;;20.60;99.90;;;;;;5067713;28;20028;-65
2023/04/03 07:24:43;;;;;;;8.68;1.75;;;20.50;99.90;;;;;;5059147;28;20468;-66
2023/04/03 07:27:12;;;;;;;5.25;1.70;;;20.50;99.90;;;;;;5058105;28;20024;-67
2023/04/03 07:29:40;;;;;;;7.35;1.10;;;20.40;99.90;;;;;;5065266;28;20058;-66
2023/04/03 07:32:07;;;;;;;6.57;1.80;;;20.30;99.90;;;;;;5060847;28;20058;-66
2023/04/03 07:34:35;;;;;;;9.90;1.33;;;20.30;99.90;;;;;;5065384;28;20032;-67
2023/04/03 07:37:03;;;;;;;6.18;1.08;;;20.20;99.90;;;;;;5063912;28;20538;-66
2023/04/03 07:39:30;;;;;;;5.63;1.20;;;20.10;99.90;;;;;;5067558;28;20614;-66
2023/04/03 07:41:58;;;;;;;8.23;1.38;;;20.00;99.90;;;;;;5066873;28;20622;-66
2023/04/03 07:44:26;;;;;;;11.30;1.40;;;20.00;99.90;;;;;;5067638;28;20028;-64
2023/04/03 07:46:55;;;;;;;5.50;1.30;;;20.00;99.90;;;;;;5066024;28;20618;-66
2023/04/03 07:49:26;;;;;;;8.45;1.20;;;19.90;99.90;;;;;;5063545;28;20044;-66
2023/04/03 07:51:53;;;;;;;4.72;1.30;;;19.80;99.90;;;;;;5057306;28;21680;-65
2023/04/03 07:54:20;;;;;;;5.50;1.30;;;19.90;99.90;;;;;;5068083;28;20040;-63
2023/04/03 07:56:48;;;;;;;9.45;1.25;;;19.80;99.90;;;;;;5056490;28;20033;-65
2023/04/03 07:59:15;;;;;;;4.63;1.40;;;19.70;99.90;;;;;;5063998;28;20024;-66
2023/04/03 08:01:43;;;;;;;6.85;1.42;;;19.70;99.90;;;;;;5052340;28;20032;-63
2023/04/03 08:04:10;;;;;;;10.23;1.95;;;19.60;99.90;;;;;;5057747;28;20378;-63
2023/04/03 08:06:38;;;;;;;7.60;1.50;;;19.50;99.90;;;;;;5053878;28;20055;-63
2023/04/03 08:09:05;;;;;;;7.20;2.10;;;19.40;99.90;;;;;;5065076;28;20033;-64
2023/04/03 08:11:33;;;;;;;7.72;2.15;;;19.40;99.90;;;;;;5063241;28;20103;-63
2023/04/03 08:14:02;;;;;;;10.30;2.72;;;19.40;99.90;;;;;;5060895;28;20052;-63
2023/04/03 08:16:29;;;;;;;7.72;1.52;;;19.30;99.90;;;;;;5058328;28;20025;-65
2023/04/03 08:18:57;;;;;;;6.03;1.23;;;19.30;99.90;;;;;;5064042;28;20067;-64
2023/04/03 08:21:25;;;;;;;7.30;1.77;;;19.20;99.90;;;;;;5059533;28;20028;-63
2023/04/03 08:23:52;;;;;;;5.57;1.13;;;19.20;99.90;;;;;;5056758;28;20079;-65
2023/04/03 08:26:21;;;;;;;8.85;1.48;;;19.20;99.90;;;;;;5062840;28;20485;-65
2023/04/03 08:28:49;;;;;;;9.73;3.05;;;19.20;99.90;;;;;;5053301;28;20148;-64
2023/04/03 08:31:19;;;;;;;7.07;1.63;;;19.10;99.90;;;;;;5074892;28;20089;-64
2023/04/03 08:33:47;;;;;;;9.10;1.27;;;19.00;99.90;;;;;;5065850;28;20055;-65
2023/04/03 08:36:27;;;;;;;6.72;1.38;;;19.00;99.90;;;;;;5057244;28;20103;-66
2023/04/03 08:38:56;;;;;;;7.30;1.30;;;18.90;99.90;;;;;;5059899;28;20039;-64
2023/04/03 08:41:43;;;;;;;5.32;0.90;;;18.90;99.90;;;;;;5068190;28;20081;-63
2023/04/03 08:44:40;;;;;;;9.85;2.42;;;18.80;99.90;;;;;;5059520;28;20055;-65
2023/04/03 08:47:24;;;;;;;9.38;1.95;;;18.70;99.90;;;;;;5054739;28;20028;-63
2023/04/03 08:50:03;;;;;;;7.22;1.67;;;18.60;99.90;;;;;;5067929;28;20043;-59
2023/04/03 08:52:38;;;;;;;5.97;1.80;;;18.50;99.90;;;;;;5056712;28;20100;-65
2023/04/03 08:55:18;;;;;;;8.95;1.63;;;18.40;99.90;;;;;;5063920;28;20032;-65
2023/04/03 08:57:48;;;;;;;12.85;1.77;;;18.40;99.90;;;;;;5052923;28;20040;-65
2023/04/03 09:00:17;;;;;;;10.75;1.52;;;18.20;99.90;;;;;;5051584;28;20021;-64
2023/04/03 09:02:50;;;;;;;11.88;2.08;;;18.20;99.90;;;;;;5061736;28;20033;-66
2023/04/03 09:05:30;;;;;;;10.63;1.70;;;18.10;99.90;;;;;;5052389;28;20398;-64
2023/04/03 09:08:17;;;;;;;8.23;1.45;;;18.10;99.90;;;;;;5050627;28;20036;-65
2023/04/03 09:10:45;;;;;;;12.00;1.95;;;18.10;99.90;;;;;;5051556;28;20485;-65
2023/04/03 09:13:13;;;;;;;10.85;1.95;;;18.00;99.90;;;;;;5052692;28;20044;-62
2023/04/03 09:15:41;;;;;;;10.05;1.52;;;18.00;99.90;;;;;;5051921;28;20095;-62
2023/04/03 09:18:25;;;;;;;8.27;1.70;;;17.90;99.90;;;;;;5050402;28;20396;-65
2023/04/03 09:20:55;;;;;;;11.65;1.52;;;17.80;99.90;;;;;;5055498;28;20028;-64
2023/04/03 09:23:43;;;;;;;11.23;1.95;;;17.80;99.90;;;;;;5055736;28;20065;-64
2023/04/03 09:26:51;;;;;;;13.13;2.17;;;17.70;99.90;;;;;;5050359;28;20638;-59
2023/04/03 09:29:26;;;;;;;6.93;1.27;;;17.60;99.90;;;;;;5055218;28;20093;-60
2023/04/03 09:32:16;;;;;;;7.60;1.95;;;17.50;99.90;;;;;;5055688;28;20059;-60
2023/04/03 09:34:44;;;;;;;11.07;1.80;;;17.40;99.90;;;;;;5059369;28;20729;-62
2023/04/03 09:37:42;;;;;;;6.88;1.83;;;17.40;99.90;;;;;;5051565;28;20065;-64
2023/04/03 09:40:32;;;;;;;9.77;1.83;;;17.40;99.90;;;;;;5056313;28;20507;-63
2023/04/03 09:43:17;;;;;;;8.50;1.88;;;17.40;99.90;;;;;;5047261;28;20021;-61
2023/04/03 09:45:47;;;;;;;11.10;1.45;;;17.50;99.90;;;;;;5053259;28;20453;-59
2023/04/03 09:48:15;;;;;;;7.72;1.70;;;17.60;99.90;;;;;;5053270;28;20032;-60
2023/04/03 09:50:58;;;;;;;12.20;1.95;;;17.60;99.90;;;;;;5057318;28;20028;-59
2023/04/03 09:53:36;;;;;;;5.78;1.63;;;17.70;99.90;;;;;;5061550;28;20032;-61
2023/04/03 09:56:28;;;;;;;11.68;1.65;;;17.60;99.90;;;;;;5063236;28;20090;-59
2023/04/03 09:59:05;;;;;;;11.57;1.95;;;17.40;99.90;;;;;;5062977;28;20032;-62
2023/04/03 10:01:34;;;;;;;7.72;1.30;;;17.40;99.90;;;;;;5054060;28;20111;-62
2023/04/03 10:04:08;;;;;;;6.55;1.48;;;17.30;99.90;;;;;;5046736;28;20048;-60
2023/04/03 10:06:47;;;;;;;7.80;1.50;;;17.20;99.90;;;;;;5063906;28;20559;-60
2023/04/03 10:09:24;;;;;;;6.93;1.45;;;17.10;99.90;;;;;;5054519;28;20574;-62
2023/04/03 10:12:11;;;;;;;4.18;1.48;;;17.00;99.90;;;;;;5056885;28;20523;-59
2023/04/03 10:14:58;;;;;;;10.68;2.05;;;17.00;99.90;;;;;;5057984;28;20028;-61
2023/04/03 10:17:47;;;;;;;11.30;1.70;;;16.90;99.90;;;;;;5064991;28;20024;-60
2023/04/03 10:20:31;;;;;;;6.53;1.52;;;16.80;99.90;;;;;;5063913;28;20021;-62
2023/04/03 10:23:22;;;;;;;6.95;1.52;;;16.80;99.90;;;;;;5066193;28;20039;-62
2023/04/03 10:26:26;;;;;;;11.07;1.70;;;16.80;99.90;;;;;;5056755;28;20029;-63
2023/04/03 10:29:03;;;;;;;14.43;1.70;;;16.70;99.90;;;;;;5056621;28;20110;-64
2023/04/03 10:31:30;;;;;;;16.95;2.35;;;16.60;99.90;;;;;;5053637;28;20028;-64
2023/04/03 10:34:21;;;;;;;10.55;1.50;;;16.60;99.90;;;;;;5059717;28;20032;-64
2023/04/03 10:37:25;;;;;;;7.57;1.30;;;16.60;99.90;;;;;;5067626;28;20740;-64
2023/04/03 10:39:52;;;;;;;8.20;1.95;;;16.50;99.90;;;;;;5056596;28;20529;-64
2023/04/03 10:42:37;;;;;;;9.35;1.40;;;16.50;99.90;;;;;;5057400;28;20401;-63
2023/04/03 10:45:27;;;;;;;13.45;1.75;;;16.40;99.90;;;;;;5073009;28;20028;-63
2023/04/03 10:48:11;;;;;;;4.65;1.52;;;16.30;99.90;;;;;;5063330;28;20069;-65
2023/04/03 10:50:43;;;;;;;;;;;16.30;99.90;;;;;;5063642;28;20028;-63
2023/04/03 10:53:32;;;;;;;12.38;1.90;;;16.30;99.90;;;;;;5050228;28;19935;-63
2023/04/03 10:56:00;;;;;;;4.82;1.70;;;16.30;99.90;;;;;;5057785;28;20040;-66
2023/04/03 10:58:48;;;;;;;7.78;1.35;;;16.20;99.90;;;;;;5070220;28;20086;-64
2023/04/03 11:01:28;;;;;;;8.65;1.27;;;16.20;99.90;;;;;;5070134;28;20043;-64
2023/04/03 11:04:01;;;;;;;5.15;1.15;;;16.10;99.90;;;;;;5060751;28;20012;-64
2023/04/03 11:06:38;;;;;;;16.85;1.77;;;16.00;99.90;;;;;;5054346;28;20674;-63
2023/04/03 11:09:24;;;;;;;8.35;2.00;;;16.00;99.90;;;;;;5058734;28;20041;-62
2023/04/03 11:12:13;;;;;;;10.10;1.50;;;16.00;99.90;;;;;;5061748;28;20052;-64
2023/04/03 11:14:42;;;;;;;9.18;1.70;;;16.10;99.90;;;;;;5067981;28;20024;-63
2023/04/03 11:17:23;;;;;;;7.38;1.88;;;16.10;99.90;;;;;;5068902;28;20036;-64
2023/04/03 11:20:11;;;;;;;13.20;2.00;;;16.20;99.90;;;;;;5067207;28;20028;-65
2023/04/03 11:22:45;;;;;;;11.45;2.15;;;16.20;99.90;;;;;;5068614;28;20032;-66
2023/04/03 11:25:13;;;;;;;14.25;2.13;;;16.30;99.90;;;;;;5060266;28;20032;-63
2023/04/03 11:27:45;;;;;;;10.60;1.40;;;16.20;99.90;;;;;;5062177;28;20047;-65
2023/04/03 11:30:47;;;;;;;10.80;1.58;;;16.10;99.90;;;;;;5065166;28;20370;-64
2023/04/03 11:33:56;;;;;;;7.82;1.40;;;16.00;99.90;;;;;;5066934;28;20028;-63
2023/04/03 11:36:27;;;;;;;9.68;1.88;;;16.00;99.90;;;;;;5058864;28;20136;-64
2023/04/03 11:39:00;;;;;;;12.95;2.00;;;15.90;99.90;;;;;;5065799;28;20029;-64
2023/04/03 11:41:32;;;;;;;5.75;2.30;;;15.80;99.90;;;;;;5053880;28;20025;-64
2023/04/03 11:44:05;;;;;;;9.50;1.95;;;15.70;99.90;;;;;;5056441;28;20677;-64
2023/04/03 11:47:03;;;;;;;11.47;2.33;;;15.60;99.90;;;;;;5055058;28;20035;-64
2023/04/03 11:50:03;;;;;;;9.18;1.77;;;15.60;99.90;;;;;;5041262;28;20045;-64
2023/04/03 11:52:39;;;;;;;16.42;2.38;;;15.60;99.90;;;;;;5056956;28;20025;-64
2023/04/03 11:55:22;;;;;;;7.50;1.95;;;15.60;99.90;;;;;;5058657;28;20039;-63
2023/04/03 11:57:55;;;;;;;10.57;2.70;;;15.70;99.90;;;;;;5057547;28;20112;-64
2023/04/03 12:00:47;;;;;;;8.02;2.50;;;15.70;99.90;;;;;;5054359;28;20017;-63
2023/04/03 12:03:29;;;;;;;10.52;2.75;;;15.80;99.90;;;;;;5053993;28;20028;-65
2023/04/03 12:06:11;;;;;;;10.40;3.08;;;15.90;99.90;;;;;;5053342;28;20086;-63
2023/04/03 12:08:41;;;;;;;13.43;4.00;;;15.80;99.90;;;;;;5053238;28;20029;-65
2023/04/03 12:11:12;;;;;;;10.60;3.65;;;15.80;99.90;;;;;;5055848;28;20077;-65
2023/04/03 12:13:42;;;;;;;10.68;3.40;;;15.90;99.90;;;;;;5063364;28;20067;-64
2023/04/03 12:16:38;;;;;;;9.45;3.97;;;15.90;99.90;;;;;;5056911;28;20028;-64
2023/04/03 12:19:15;;;;;;;11.45;4.03;;;15.90;99.90;;;;;;5064915;28;20097;-63
2023/04/03 12:21:48;;;;;;;5.90;2.92;;;15.90;99.90;;;;;;5057448;28;20048;-63
2023/04/03 12:24:22;;;;;;;12.30;3.28;;;15.90;99.90;;;;;;5057644;28;20422;-63
2023/04/03 12:26:58;;;;;;;13.05;4.15;;;15.90;99.90;;;;;;5062924;28;20032;-63
2023/04/03 12:29:48;;;;;;;13.68;3.78;;;15.80;99.90;;;;;;5061481;28;20045;-63
2023/04/03 12:32:36;;;;;;;15.15;3.85;;;15.80;99.90;;;;;;5050315;28;20056;-63
2023/04/03 12:35:48;;;;;;;14.55;4.28;;;15.80;99.90;;;;;;5064797;28;20036;-65
2023/04/03 12:38:34;;;;;;;14.85;3.53;;;15.80;99.90;;;;;;5018615;28;20460;-64
2023/04/03 12:41:07;;;;;;;17.60;4.05;;;15.90;99.90;;;;;;5055821;28;20526;-64
2023/04/03 12:44:11;;;;;;;15.45;3.33;;;15.90;99.90;;;;;;5054796;28;20036;-64
2023/04/03 12:46:47;;;;;;;14.45;2.95;;;16.00;99.90;;;;;;5056519;28;20210;-64
2023/04/03 12:49:38;;;;;;;9.55;2.65;;;15.90;99.90;;;;;;5065601;28;20066;-64
2023/04/03 12:52:32;;;;;;;13.93;4.07;;;15.90;99.90;;;;;;5061352;28;20127;-62
2023/04/03 12:55:04;;;;;;;11.60;3.45;;;15.90;99.90;;;;;;5056110;28;20096;-64
2023/04/03 12:57:32;;;;;;;16.30;3.78;;;15.90;99.90;;;;;;5057346;28;20021;-62
2023/04/03 13:00:00;;;;;;;12.63;3.95;;;15.90;99.90;;;;;;5059298;28;20032;-63
2023/04/03 13:02:31;;;;;;;10.05;3.00;;;15.90;99.90;;;;;;5065910;28;20028;-63
2023/04/03 13:05:05;;;;;;;14.73;3.13;;;15.90;99.90;;;;;;5068164;28;20118;-63
2023/04/03 13:07:37;;;;;;;9.98;3.00;;;15.80;99.90;;;;;;5068940;28;20046;-63
2023/04/03 13:10:16;;;;;;;8.93;2.90;;;15.80;99.90;;;;;;5072872;28;20093;-63
2023/04/03 13:12:57;;;;;;;17.33;2.83;;;15.80;99.90;;;;;;5052390;28;20037;-63